Aviation Digital Data Service (ADDS)

Output produced by METARs form (1310 UTC 25 August 2016)
found at http://www.aviationweather.gov/adds/metars/
 
METAR text: EPSC 251300Z 16012KT 120V180 CAVOK 26/13 Q1023
Conditions at: EPSC (SZCZECIN/GOLENIO, PL) observed 1300 UTC 25 August 2016
Temperature: 26.0°C (79°F)
Dewpoint: 13.0°C (55°F) [RH = 45%]
Pressure (altimeter): 30.21 inches Hg (1023.0 mb)
Winds: from the SSE (160 degrees) at 14 MPH (12 knots; 6.2 m/s)
Visibility: 6 or more miles (10+ km)
Ceiling: ceiling and visibility are OK
Clouds: unknown
Weather: no significant weather observed at this time

Forecast for: EPSC (SZCZECIN/GOLENIO, PL)
Text: TAF EPSC 251130Z 2512/2612 16010KT CAVOK
Forecast period: 1200 UTC 25 August 2016 to 1200 UTC 26 August 2016
Forecast type: FROM: standard forecast or significant change
Winds: from the SSE (160 degrees) at 12 MPH (10 knots; 5.2 m/s)
Visibility: 6 or more miles (10+ km)
Clouds: not forecast
Weather: NSW  (no significant weather)